createdAt,value
2022-11-14T00:02:26.856Z,7.25
2022-11-14T00:05:14.412Z,12.38
2022-11-14T00:08:02.089Z,8.93
2022-11-14T00:10:51.350Z,10.65
2022-11-14T00:13:38.852Z,9.98
2022-11-14T00:16:26.113Z,15.93
2022-11-14T00:19:15.366Z,29.52
2022-11-14T00:22:03.127Z,28.23
2022-11-14T00:24:50.875Z,12.75
2022-11-14T00:27:38.230Z,20.00
2022-11-14T00:30:25.955Z,12.30
2022-11-14T00:33:18.729Z,10.85
2022-11-14T00:36:09.980Z,14.77
2022-11-14T00:38:57.780Z,13.85
2022-11-14T00:41:45.752Z,13.57
2022-11-14T00:44:33.093Z,19.13
2022-11-14T00:47:21.161Z,25.52
2022-11-14T00:50:09.545Z,13.65
2022-11-14T00:52:58.494Z,9.80
2022-11-14T00:55:45.699Z,14.93
2022-11-14T00:58:33.704Z,13.57
2022-11-14T01:01:21.140Z,13.32
2022-11-14T01:04:09.341Z,9.45
2022-11-14T01:06:56.716Z,8.95
2022-11-14T01:09:46.042Z,8.88
2022-11-14T01:12:34.417Z,8.30
2022-11-14T01:15:22.371Z,10.10
2022-11-14T01:18:11.518Z,7.72
2022-11-14T01:20:59.094Z,9.02
2022-11-14T01:23:46.628Z,10.45
2022-11-14T01:26:35.899Z,6.70
2022-11-14T01:29:23.194Z,9.00
2022-11-14T01:32:11.267Z,10.45
2022-11-14T01:34:58.894Z,9.10
2022-11-14T01:37:46.671Z,5.93
2022-11-14T01:40:34.309Z,10.20
2022-11-14T01:43:28.893Z,8.90
2022-11-14T01:46:20.380Z,6.50
2022-11-14T01:49:16.256Z,7.20
2022-11-14T01:52:07.449Z,9.18
2022-11-14T01:55:02.334Z,5.53
2022-11-14T01:57:50.822Z,6.40
2022-11-14T02:00:40.154Z,6.90
2022-11-14T02:03:27.759Z,5.93
2022-11-14T02:06:17.910Z,5.95
2022-11-14T02:09:08.131Z,6.22
2022-11-14T02:11:58.853Z,5.88
2022-11-14T02:14:48.475Z,8.32
2022-11-14T02:17:37.549Z,5.32
2022-11-14T02:20:28.708Z,5.80
2022-11-14T02:23:20.596Z,6.20
2022-11-14T02:26:07.854Z,7.13
2022-11-14T02:28:56.478Z,6.43
2022-11-14T02:31:44.086Z,5.88
2022-11-14T02:34:32.468Z,7.05
2022-11-14T02:37:21.340Z,6.85
2022-11-14T02:40:10.624Z,6.55
2022-11-14T02:42:58.053Z,6.13
2022-11-14T02:45:45.952Z,8.20
2022-11-14T02:48:33.223Z,7.40
2022-11-14T02:51:21.352Z,9.02
2022-11-14T02:54:10.358Z,7.90
2022-11-14T02:56:58.173Z,7.10
2022-11-14T02:59:45.646Z,6.97
2022-11-14T03:02:33.380Z,11.63
2022-11-14T03:05:21.596Z,7.43
2022-11-14T03:08:09.165Z,7.00
2022-11-14T03:11:04.470Z,8.60
2022-11-14T03:13:52.413Z,8.73
2022-11-14T03:16:39.894Z,7.13
2022-11-14T03:19:27.351Z,9.95
2022-11-14T03:22:15.272Z,8.20
2022-11-14T03:25:03.340Z,9.60
2022-11-14T03:27:51.873Z,8.45
2022-11-14T03:30:39.680Z,9.20
2022-11-14T03:33:27.300Z,10.90
2022-11-14T03:36:15.292Z,8.57
2022-11-14T03:39:02.795Z,7.30
2022-11-14T03:41:50.676Z,7.18
2022-11-14T03:44:39.360Z,9.45
2022-11-14T03:47:27.306Z,10.53
2022-11-14T03:50:14.480Z,8.52
2022-11-14T03:53:02.401Z,10.20
2022-11-14T03:55:49.771Z,10.52
2022-11-14T03:58:37.226Z,11.35
2022-11-14T04:01:26.174Z,9.98
2022-11-14T04:04:14.516Z,9.95
2022-11-14T04:07:02.153Z,9.63
2022-11-14T04:09:51.959Z,11.52
2022-11-14T04:12:39.484Z,14.02
2022-11-14T04:15:27.000Z,10.93
2022-11-14T04:18:16.026Z,10.95
2022-11-14T04:21:04.096Z,13.43
2022-11-14T04:23:51.962Z,12.57
2022-11-14T04:26:39.468Z,12.00
2022-11-14T04:29:26.867Z,11.88
2022-11-14T04:32:14.813Z,15.48
2022-11-14T04:35:03.819Z,15.93
2022-11-14T04:37:51.289Z,12.57
2022-11-14T04:40:39.042Z,12.57
2022-11-14T04:43:26.922Z,12.85
2022-11-14T04:46:14.294Z,11.95
2022-11-14T04:49:02.341Z,11.98
2022-11-14T04:51:51.304Z,12.38
2022-11-14T04:54:38.939Z,13.07
2022-11-14T04:57:26.187Z,14.70
2022-11-14T05:00:15.116Z,12.45
2022-11-14T05:03:02.758Z,12.68
2022-11-14T05:05:50.410Z,13.20
2022-11-14T05:08:39.290Z,14.75
2022-11-14T05:11:29.378Z,16.40
2022-11-14T05:14:17.134Z,15.40
2022-11-14T05:17:04.813Z,17.05
2022-11-14T05:19:52.528Z,15.80
2022-11-14T05:22:40.937Z,14.77
2022-11-14T05:25:29.875Z,15.98
2022-11-14T05:28:17.547Z,19.33
2022-11-14T05:31:06.140Z,16.52
2022-11-14T05:33:53.767Z,16.50
2022-11-14T05:36:41.164Z,17.65
2022-11-14T05:39:29.107Z,17.50
2022-11-14T05:42:18.127Z,19.25
2022-11-14T05:45:06.894Z,20.07
2022-11-14T05:47:55.023Z,17.80
2022-11-14T05:50:42.800Z,16.15
2022-11-14T05:53:31.254Z,20.65
2022-11-14T05:56:19.243Z,20.88
2022-11-14T05:59:08.167Z,23.90
2022-11-14T06:01:56.356Z,22.10
2022-11-14T06:04:43.956Z,24.98
2022-11-14T06:07:31.769Z,21.23
2022-11-14T06:10:19.231Z,22.67
2022-11-14T06:13:06.913Z,27.08
2022-11-14T06:15:59.348Z,27.23
2022-11-14T06:18:48.000Z,26.27
2022-11-14T06:21:35.509Z,27.60
2022-11-14T06:24:22.968Z,25.88
2022-11-14T06:27:10.311Z,27.67
2022-11-14T06:29:58.251Z,29.02
2022-11-14T06:32:47.123Z,23.95
2022-11-14T06:35:35.439Z,24.10
2022-11-14T06:38:23.054Z,25.63
2022-11-14T06:41:13.147Z,27.00
2022-11-14T06:44:00.687Z,25.17
2022-11-14T06:46:48.540Z,24.35
2022-11-14T06:49:40.484Z,22.85
2022-11-14T06:52:28.510Z,23.63
2022-11-14T06:55:18.644Z,23.33
2022-11-14T06:58:10.438Z,22.60
2022-11-14T07:00:58.603Z,21.88
2022-11-14T07:03:47.399Z,21.73
2022-11-14T07:06:36.314Z,22.52
2022-11-14T07:09:23.888Z,21.67
2022-11-14T07:12:11.509Z,19.23
2022-11-14T07:14:59.151Z,18.95
2022-11-14T07:17:48.514Z,19.13
2022-11-14T07:20:36.483Z,19.60
2022-11-14T07:23:25.303Z,16.38
2022-11-14T07:26:13.775Z,20.40
2022-11-14T07:29:02.712Z,19.10
2022-11-14T07:31:51.296Z,20.15
2022-11-14T07:34:39.239Z,19.27
2022-11-14T07:37:27.338Z,15.52
2022-11-14T07:40:16.891Z,19.05
2022-11-14T07:43:04.796Z,17.27
2022-11-14T07:45:52.539Z,19.17
2022-11-14T07:48:40.708Z,19.17
2022-11-14T07:51:28.060Z,19.13
2022-11-14T07:54:15.907Z,18.65
2022-11-14T07:57:04.656Z,19.80
2022-11-14T07:59:52.936Z,18.58
2022-11-14T08:02:40.334Z,19.88
2022-11-14T08:05:27.871Z,18.08
2022-11-14T08:08:15.671Z,19.05
2022-11-14T08:11:03.652Z,20.27
2022-11-14T08:13:52.719Z,17.90
2022-11-14T08:16:41.056Z,17.98
2022-11-14T08:19:28.366Z,20.02
2022-11-14T08:22:16.012Z,20.13
2022-11-14T08:25:03.733Z,18.38
2022-11-14T08:27:51.469Z,18.55
2022-11-14T08:30:40.188Z,20.25
2022-11-14T08:33:28.114Z,22.48
2022-11-14T08:36:15.590Z,19.40
2022-11-14T08:39:03.594Z,21.75
2022-11-14T08:41:51.164Z,21.83
2022-11-14T08:44:39.195Z,17.20
2022-11-14T08:47:28.005Z,21.05
2022-11-14T08:50:16.047Z,19.15
2022-11-14T08:53:03.522Z,22.92
2022-11-14T08:55:51.605Z,20.65
2022-11-14T08:58:39.217Z,20.60
2022-11-14T09:01:27.526Z,24.08
2022-11-14T09:04:16.758Z,23.02
2022-11-14T09:07:04.924Z,22.42
2022-11-14T09:09:52.387Z,21.85
2022-11-14T09:12:39.987Z,18.85
2022-11-14T09:15:28.478Z,41.05
2022-11-14T09:18:16.358Z,14.55
2022-11-14T09:21:07.488Z,14.25
2022-11-14T09:24:00.511Z,15.18
2022-11-14T09:26:55.255Z,11.48
2022-11-14T09:29:44.853Z,11.07
2022-11-14T09:32:32.465Z,11.15
2022-11-14T09:35:20.503Z,11.77
2022-11-14T09:38:12.447Z,11.32
2022-11-14T09:41:11.662Z,10.80
2022-11-14T09:44:20.508Z,9.13
2022-11-14T09:47:18.109Z,9.83
2022-11-14T09:50:14.098Z,9.52
2022-11-14T09:53:08.949Z,11.05
2022-11-14T09:55:58.664Z,14.15
2022-11-14T09:58:46.361Z,11.15
2022-11-14T10:01:45.177Z,9.38
2022-11-14T10:04:50.683Z,10.43
2022-11-14T10:07:52.892Z,9.77
2022-11-14T10:10:51.471Z,10.52
2022-11-14T10:13:54.163Z,10.20
2022-11-14T10:16:48.241Z,13.68
2022-11-14T10:19:43.263Z,14.15
2022-11-14T10:22:51.602Z,12.70
2022-11-14T10:25:50.643Z,14.10
2022-11-14T10:29:03.960Z,12.35
2022-11-14T10:32:01.628Z,14.90
2022-11-14T10:34:57.574Z,15.65
2022-11-14T10:37:54.433Z,14.27
2022-11-14T10:40:45.699Z,12.57
2022-11-14T10:43:39.252Z,19.50
2022-11-14T10:46:31.822Z,16.48
2022-11-14T10:49:23.156Z,16.73
2022-11-14T10:52:16.379Z,18.08
2022-11-14T10:55:09.303Z,17.20
2022-11-14T10:57:58.078Z,15.65
2022-11-14T11:00:45.584Z,18.98
2022-11-14T11:03:45.631Z,15.50
2022-11-14T11:06:33.199Z,19.20
2022-11-14T11:09:45.180Z,16.65
2022-11-14T11:12:46.047Z,17.73
2022-11-14T11:15:42.166Z,16.33
2022-11-14T11:18:31.720Z,36.58
2022-11-14T11:21:23.108Z,16.98
2022-11-14T11:24:11.038Z,18.70
2022-11-14T11:27:14.506Z,20.98
2022-11-14T11:30:23.131Z,18.20
2022-11-14T11:33:25.800Z,23.08
2022-11-14T11:36:17.700Z,23.55
2022-11-14T11:39:06.866Z,21.50
2022-11-14T11:42:11.988Z,20.27
2022-11-14T11:45:03.492Z,18.10
2022-11-14T11:47:57.246Z,22.85
2022-11-14T11:50:45.163Z,27.05
2022-11-14T11:53:39.940Z,22.92
2022-11-14T11:56:32.951Z,22.90
2022-11-14T11:59:34.618Z,23.38
2022-11-14T12:02:25.499Z,22.65
2022-11-14T12:05:17.458Z,27.55
2022-11-14T12:08:09.640Z,21.95
2022-11-14T12:10:59.238Z,35.42
2022-11-14T12:17:11.493Z,22.55
2022-11-14T12:20:16.966Z,22.13
2022-11-14T12:23:37.996Z,18.65
2022-11-14T12:26:38.283Z,23.25
2022-11-14T12:29:47.714Z,22.05
2022-11-14T12:32:41.912Z,24.47
2022-11-14T12:35:33.353Z,26.48
2022-11-14T12:38:23.779Z,22.73
2022-11-14T12:41:11.797Z,21.33
2022-11-14T12:44:33.066Z,22.60
2022-11-14T12:47:23.810Z,23.38
2022-11-14T12:50:40.740Z,32.50
2022-11-14T12:53:45.148Z,25.55
2022-11-14T12:56:57.540Z,25.58
2022-11-14T12:59:58.570Z,23.13
2022-11-14T13:03:08.093Z,21.60
2022-11-14T13:06:02.279Z,21.42
2022-11-14T13:09:19.791Z,21.75
2022-11-14T13:12:48.059Z,20.20
2022-11-14T13:16:05.210Z,19.08
2022-11-14T13:19:14.593Z,17.95
2022-11-14T13:22:40.555Z,18.40
2022-11-14T13:25:28.190Z,17.35
2022-11-14T13:28:48.058Z,19.27
2022-11-14T13:31:48.702Z,17.05
2022-11-14T13:34:44.704Z,19.35
2022-11-14T13:37:58.841Z,16.42
2022-11-14T13:40:55.302Z,17.88
2022-11-14T13:43:57.464Z,15.73
2022-11-14T13:47:03.218Z,18.38
2022-11-14T13:50:04.609Z,20.10
2022-11-14T13:52:53.350Z,18.58
2022-11-14T13:55:54.350Z,20.25
2022-11-14T13:58:59.155Z,20.70
2022-11-14T14:02:05.912Z,21.70
2022-11-14T14:05:05.275Z,20.13
2022-11-14T14:08:23.579Z,19.63
2022-11-14T14:11:28.252Z,18.40
2022-11-14T14:14:32.765Z,20.95
2022-11-14T14:17:28.705Z,19.23
2022-11-14T14:20:32.627Z,19.70
2022-11-14T14:23:34.488Z,21.45
2022-11-14T14:26:31.469Z,19.60
2022-11-14T14:29:25.596Z,23.17
2022-11-14T14:32:14.710Z,20.75
2022-11-14T14:35:14.693Z,21.27
2022-11-14T14:38:11.264Z,23.02
2022-11-14T14:40:59.177Z,22.42
2022-11-14T14:43:54.425Z,25.10
2022-11-14T14:46:42.367Z,23.58
2022-11-14T14:49:35.832Z,25.60
2022-11-14T14:52:29.680Z,25.52
2022-11-14T14:55:29.591Z,28.80
2022-11-14T14:58:25.066Z,24.48
2022-11-14T15:01:15.902Z,22.88
2022-11-14T15:04:06.384Z,30.02
2022-11-14T15:09:54.460Z,27.33
2022-11-14T15:12:44.237Z,30.02
2022-11-14T15:15:32.729Z,30.67
2022-11-14T15:18:25.490Z,29.08
2022-11-14T15:21:24.454Z,32.85
2022-11-14T15:24:18.205Z,30.52
2022-11-14T15:27:07.168Z,31.50
2022-11-14T15:30:02.088Z,35.33
2022-11-14T15:32:51.274Z,29.35
2022-11-14T15:35:40.702Z,29.58
2022-11-14T15:38:43.550Z,30.80
2022-11-14T15:41:33.053Z,32.83
2022-11-14T15:44:34.558Z,25.63
2022-11-14T15:47:25.444Z,34.28
2022-11-14T15:50:33.326Z,33.35
2022-11-14T15:53:25.572Z,30.88
2022-11-14T15:56:14.566Z,30.35
2022-11-14T15:59:03.935Z,30.95
2022-11-14T16:01:55.310Z,33.47
2022-11-14T16:04:47.883Z,29.65
2022-11-14T16:07:36.386Z,30.75
2022-11-14T16:10:26.314Z,32.58
2022-11-14T16:13:13.935Z,32.03
2022-11-14T16:16:01.468Z,30.73
2022-11-14T16:18:49.312Z,32.00
2022-11-14T16:21:39.723Z,33.80
2022-11-14T16:24:32.514Z,31.40
2022-11-14T16:27:22.393Z,34.10
2022-11-14T16:30:12.364Z,31.02
2022-11-14T16:33:00.763Z,31.05
2022-11-14T16:35:48.737Z,33.88
2022-11-14T16:38:37.472Z,37.53
2022-11-14T16:41:25.390Z,30.33
2022-11-14T16:44:17.687Z,32.70
2022-11-14T16:47:05.712Z,33.45
2022-11-14T16:49:53.162Z,34.13
2022-11-14T16:52:41.487Z,34.42
2022-11-14T16:55:30.504Z,30.60
2022-11-14T16:58:18.381Z,32.47
2022-11-14T17:01:11.605Z,37.70
2022-11-14T17:04:01.807Z,35.83
2022-11-14T17:06:49.140Z,37.38
2022-11-14T17:09:37.360Z,33.55
2022-11-14T17:12:26.333Z,37.38
2022-11-14T17:15:14.447Z,34.33
2022-11-14T17:18:01.716Z,34.70
2022-11-14T17:20:49.469Z,34.67
2022-11-14T17:23:36.764Z,32.88
2022-11-14T17:26:24.563Z,35.42
2022-11-14T17:29:13.209Z,34.92
2022-11-14T17:32:01.039Z,32.33
2022-11-14T17:34:48.763Z,34.97
2022-11-14T17:37:36.793Z,35.88
2022-11-14T17:40:24.201Z,42.20
2022-11-14T17:43:12.011Z,35.80
2022-11-14T17:46:01.165Z,42.05
2022-11-14T17:48:49.525Z,41.00
2022-11-14T17:51:36.869Z,44.45
2022-11-14T17:54:24.792Z,37.72
2022-11-14T17:57:13.231Z,43.25
2022-11-14T18:00:01.158Z,35.60
2022-11-14T18:02:49.972Z,39.40
2022-11-14T18:05:37.590Z,40.25
2022-11-14T18:08:25.890Z,43.53
2022-11-14T18:11:15.330Z,44.17
2022-11-14T18:14:03.118Z,42.28
2022-11-14T18:17:11.891Z,40.40
2022-11-14T18:20:00.785Z,39.60
2022-11-14T18:25:36.003Z,39.65
2022-11-14T18:28:24.068Z,40.00
2022-11-14T18:31:13.515Z,40.17
2022-11-14T18:34:02.754Z,45.00
2022-11-14T18:36:52.026Z,42.05
2022-11-14T18:39:40.014Z,41.28
2022-11-14T18:42:27.436Z,37.67
2022-11-14T18:45:15.795Z,42.17
2022-11-14T18:48:03.097Z,38.35
2022-11-14T18:50:50.933Z,41.30
2022-11-14T18:53:40.605Z,37.50
2022-11-14T18:56:28.482Z,40.22
2022-11-14T18:59:15.786Z,39.63
2022-11-14T19:02:03.883Z,35.65
2022-11-14T19:04:51.776Z,42.15
2022-11-14T19:07:39.375Z,42.58
2022-11-14T19:10:28.197Z,40.97
2022-11-14T19:13:16.153Z,38.77
2022-11-14T19:16:04.688Z,44.08
2022-11-14T19:18:52.450Z,38.80
2022-11-14T19:21:40.225Z,39.10
2022-11-14T19:24:27.881Z,48.00
2022-11-14T19:27:16.952Z,46.17
2022-11-14T19:30:05.011Z,39.05
2022-11-14T19:32:52.568Z,45.55
2022-11-14T19:35:40.519Z,43.65
2022-11-14T19:38:28.028Z,47.08
2022-11-14T19:41:17.817Z,45.17
2022-11-14T19:44:06.682Z,43.28
2022-11-14T19:46:54.765Z,44.75
2022-11-14T19:49:42.805Z,48.47
2022-11-14T19:52:30.674Z,39.95
2022-11-14T19:55:18.034Z,37.47
2022-11-14T19:58:06.872Z,39.95
2022-11-14T20:01:02.357Z,41.55
2022-11-14T20:03:54.048Z,41.70
2022-11-14T20:06:42.366Z,40.70
2022-11-14T20:09:30.923Z,36.85
2022-11-14T20:12:18.370Z,46.33
2022-11-14T20:15:06.733Z,42.17
2022-11-14T20:17:55.436Z,42.70
2022-11-14T20:20:43.692Z,38.13
2022-11-14T20:23:31.491Z,44.45
2022-11-14T20:26:20.680Z,47.08
2022-11-14T20:29:08.259Z,44.08
2022-11-14T20:31:55.927Z,43.13
2022-11-14T20:34:45.240Z,46.45
2022-11-14T20:37:33.335Z,47.67
2022-11-14T20:40:21.289Z,41.33
2022-11-14T20:43:09.700Z,44.45
2022-11-14T20:45:58.808Z,37.78
2022-11-14T20:48:47.788Z,40.83
2022-11-14T20:51:37.632Z,40.20
2022-11-14T20:54:26.957Z,42.53
2022-11-14T20:57:14.579Z,39.00
2022-11-14T21:00:02.489Z,43.38
2022-11-14T21:02:50.237Z,40.97
2022-11-14T21:05:40.593Z,40.22
2022-11-14T21:08:29.733Z,40.38
2022-11-14T21:11:19.108Z,39.97
2022-11-14T21:14:06.583Z,44.53
2022-11-14T21:16:54.607Z,46.58
2022-11-14T21:19:42.115Z,39.47
2022-11-14T21:22:30.160Z,44.15
2022-11-14T21:25:19.465Z,46.35
2022-11-14T21:28:07.406Z,46.67
2022-11-14T21:30:54.808Z,44.65
2022-11-14T21:33:42.658Z,47.63
2022-11-14T21:36:44.468Z,48.30
2022-11-14T21:39:33.449Z,41.95
2022-11-14T21:42:22.361Z,47.08
2022-11-14T21:45:11.539Z,44.47
2022-11-14T21:47:59.028Z,48.50
2022-11-14T21:50:46.752Z,58.55
2022-11-14T21:53:34.691Z,44.33
2022-11-14T21:56:23.902Z,44.97
2022-11-14T21:59:18.371Z,42.97
2022-11-14T22:02:23.670Z,47.33
2022-11-14T22:05:11.296Z,44.22
2022-11-14T22:07:59.251Z,45.63
2022-11-14T22:10:46.690Z,50.33
2022-11-14T22:13:34.587Z,42.88
2022-11-14T22:16:23.942Z,47.47
2022-11-14T22:19:11.540Z,46.15
2022-11-14T22:21:59.136Z,45.33
2022-11-14T22:24:46.828Z,44.63
2022-11-14T22:27:34.531Z,43.08
2022-11-14T22:30:22.255Z,45.38
2022-11-14T22:33:11.358Z,44.15
2022-11-14T22:36:03.429Z,43.28
2022-11-14T22:38:52.377Z,43.65
2022-11-14T22:41:39.966Z,39.55
2022-11-14T22:44:27.658Z,37.70
2022-11-14T22:47:15.487Z,41.47
2022-11-14T22:50:04.592Z,41.08
2022-11-14T22:52:52.171Z,45.13
2022-11-14T22:55:46.965Z,46.13
2022-11-14T22:58:36.637Z,43.60
2022-11-14T23:01:26.524Z,43.83
2022-11-14T23:04:14.611Z,45.40
2022-11-14T23:07:03.503Z,46.42
2022-11-14T23:09:51.275Z,50.25
2022-11-14T23:12:38.802Z,47.50
2022-11-14T23:15:26.857Z,41.72
2022-11-14T23:18:14.847Z,46.58
2022-11-14T23:21:05.709Z,47.03
2022-11-14T23:23:59.035Z,46.05
2022-11-14T23:26:46.930Z,50.35
2022-11-14T23:29:34.210Z,48.55
2022-11-14T23:32:22.155Z,50.28
2022-11-14T23:35:10.247Z,54.70
2022-11-14T23:38:02.907Z,56.25
2022-11-14T23:40:54.992Z,54.10
2022-11-14T23:43:42.615Z,51.85
2022-11-14T23:46:30.131Z,55.45
2022-11-14T23:49:17.867Z,55.13
2022-11-14T23:52:05.490Z,56.30
2022-11-14T23:54:53.220Z,53.47
2022-11-14T23:57:41.977Z,54.30
